Terminal Aerodrome Forecast
Issued by NWS

Home | Current Version | Previous Version | Text Only | Print | Product List | Glossary On
Versions: 1 2 3 4 5 6 7 8 9 10 11 12 13 14
000
FTUS44 KLZK 021826 AAA
TAFLLQ
TAF AMD
KLLQ 021826Z 0218/0318 VRB06KT P6SM VCTS SCT040CB
     FM030100 VRB03KT P6SM FEW100 FEW250
     FM031500 23005KT P6SM FEW040=

USA.gov is the U.S. government's official web portal to all federal, state and local government web resources and services.